createdAt,value
2022-10-26T00:01:09.547Z,1.90
2022-10-26T00:06:14.954Z,1.53
2022-10-26T00:11:20.248Z,1.17
2022-10-26T00:16:26.380Z,1.27
2022-10-26T00:21:30.520Z,0.90
2022-10-26T00:26:35.364Z,1.30
2022-10-26T00:31:39.246Z,3.73
2022-10-26T00:36:42.705Z,6.10
2022-10-26T00:41:47.527Z,2.13
2022-10-26T00:46:50.972Z,2.30
2022-10-26T00:51:55.309Z,0.97
2022-10-26T00:57:00.390Z,1.87
2022-10-26T01:02:04.059Z,1.90
2022-10-26T01:07:08.090Z,1.23
2022-10-26T01:12:12.883Z,4.60
2022-10-26T01:17:28.819Z,2.00
2022-10-26T01:22:41.153Z,1.70
2022-10-26T01:27:48.578Z,1.90
2022-10-26T01:33:32.469Z,2.00
2022-10-26T01:38:48.820Z,2.07
2022-10-26T01:43:56.430Z,3.73
2022-10-26T01:49:07.831Z,1.30
2022-10-26T01:54:11.365Z,3.30
2022-10-26T01:59:34.009Z,2.07
2022-10-26T02:04:49.380Z,15.43
2022-10-26T02:10:00.588Z,1.70
2022-10-26T02:15:08.900Z,1.60
2022-10-26T02:20:19.307Z,1.40
2022-10-26T02:25:27.275Z,0.60
2022-10-26T02:30:30.734Z,1.43
2022-10-26T02:35:38.134Z,5.10
2022-10-26T02:40:43.158Z,2.93
2022-10-26T02:45:50.598Z,1.10
2022-10-26T02:51:05.027Z,1.40
2022-10-26T02:56:16.604Z,0.77
2022-10-26T03:01:20.415Z,1.30
2022-10-26T03:06:25.955Z,3.50
2022-10-26T03:11:29.412Z,1.03
2022-10-26T03:16:32.838Z,2.23
2022-10-26T03:21:37.622Z,4.83
2022-10-26T03:26:41.121Z,0.73
2022-10-26T03:31:44.575Z,1.20
2022-10-26T03:36:49.682Z,8.77
2022-10-26T03:46:58.546Z,4.00
2022-10-26T03:52:03.615Z,2.53
2022-10-26T03:57:07.157Z,0.57
2022-10-26T04:02:12.102Z,0.77
2022-10-26T04:07:17.210Z,1.00
2022-10-26T04:12:20.689Z,3.73
2022-10-26T04:17:24.088Z,1.00
2022-10-26T04:22:29.100Z,13.80
2022-10-26T04:27:32.794Z,0.60
2022-10-26T04:32:36.333Z,4.37
2022-10-26T04:37:41.412Z,2.10
2022-10-26T04:42:46.090Z,0.87
2022-10-26T04:47:49.757Z,3.00
2022-10-26T04:52:54.594Z,1.07
2022-10-26T04:58:00.355Z,5.90
2022-10-26T05:03:07.069Z,3.90
2022-10-26T05:08:11.956Z,1.60
2022-10-26T05:13:15.472Z,1.53
2022-10-26T05:18:18.956Z,2.10
2022-10-26T05:23:24.541Z,1.70
2022-10-26T05:28:28.130Z,1.63
2022-10-26T05:33:31.540Z,3.90
2022-10-26T05:38:36.292Z,2.10
2022-10-26T05:43:39.959Z,1.70
2022-10-26T05:48:43.537Z,2.70
2022-10-26T05:53:48.642Z,12.80
2022-10-26T05:58:52.416Z,8.90
2022-10-26T06:04:09.978Z,2.40
2022-10-26T06:09:15.949Z,7.73
2022-10-26T06:14:19.847Z,1.50
2022-10-26T06:19:35.065Z,1.70
2022-10-26T06:24:47.654Z,4.43
2022-10-26T06:30:00.913Z,5.70
2022-10-26T06:35:20.404Z,3.73
2022-10-26T06:40:26.757Z,3.67
2022-10-26T06:45:30.950Z,4.23
2022-10-26T06:50:39.040Z,3.20
2022-10-26T06:55:46.470Z,5.90
2022-10-26T07:00:52.286Z,3.97
2022-10-26T07:05:55.793Z,2.43
2022-10-26T07:11:00.726Z,27.00
2022-10-26T07:16:04.295Z,26.70
2022-10-26T07:21:07.815Z,12.57
2022-10-26T07:26:12.862Z,7.33
2022-10-26T07:31:16.599Z,2.57
2022-10-26T07:36:21.306Z,3.90
2022-10-26T07:41:26.195Z,1.87
2022-10-26T07:46:30.726Z,2.53
2022-10-26T07:51:34.314Z,2.30
2022-10-26T07:56:41.691Z,1.90
2022-10-26T08:01:45.377Z,2.33
2022-10-26T08:06:49.234Z,4.10
2022-10-26T08:11:54.176Z,4.37
2022-10-26T08:16:58.268Z,4.10
2022-10-26T08:22:01.996Z,4.00
2022-10-26T08:27:07.880Z,13.23
2022-10-26T08:32:11.516Z,6.50
2022-10-26T08:37:15.002Z,4.33
2022-10-26T08:42:25.192Z,3.03
2022-10-26T08:47:32.172Z,5.60
2022-10-26T08:52:41.808Z,1.80
2022-10-26T08:57:49.686Z,2.10
2022-10-26T09:02:54.447Z,4.87
2022-10-26T09:08:07.391Z,2.53
2022-10-26T09:13:24.674Z,7.73
2022-10-26T09:18:39.175Z,2.73
2022-10-26T09:24:07.270Z,1.50
2022-10-26T09:29:15.260Z,1.60
2022-10-26T09:34:29.453Z,0.90
2022-10-26T09:39:41.256Z,5.40
2022-10-26T09:44:55.012Z,1.20
2022-10-26T09:50:06.735Z,3.70
2022-10-26T09:55:12.627Z,2.23
2022-10-26T10:00:19.896Z,1.43
2022-10-26T10:11:01.645Z,1.17
2022-10-26T10:16:11.698Z,2.97
2022-10-26T10:21:15.180Z,3.33
2022-10-26T10:26:18.625Z,5.30
2022-10-26T10:31:27.988Z,8.97
2022-10-26T10:36:32.399Z,6.83
2022-10-26T10:41:37.419Z,1.90
2022-10-26T10:46:42.308Z,1.33
2022-10-26T10:51:46.186Z,2.43
2022-10-26T10:56:53.617Z,1.33
2022-10-26T11:02:24.322Z,1.63
2022-10-26T11:07:29.518Z,1.27
2022-10-26T11:12:37.565Z,4.67
2022-10-26T11:17:53.196Z,9.40
2022-10-26T11:23:06.119Z,7.17
2022-10-26T11:28:17.614Z,3.33
2022-10-26T11:33:28.958Z,1.80
2022-10-26T11:38:46.275Z,2.10
2022-10-26T11:44:06.861Z,2.90
2022-10-26T11:49:20.071Z,2.20
2022-10-26T11:54:31.255Z,1.63
2022-10-26T11:59:41.850Z,2.50
2022-10-26T12:04:51.573Z,5.97
2022-10-26T12:09:56.249Z,2.60
2022-10-26T12:15:08.927Z,1.40
2022-10-26T12:20:41.740Z,2.67
2022-10-26T12:25:45.175Z,1.70
2022-10-26T12:30:48.491Z,8.27
2022-10-26T12:35:53.283Z,3.77
2022-10-26T12:41:15.129Z,1.13
2022-10-26T12:46:43.829Z,1.20
2022-10-26T12:51:50.186Z,2.37
2022-10-26T12:56:58.678Z,7.30
2022-10-26T13:02:36.472Z,3.07
2022-10-26T13:07:42.523Z,1.70
2022-10-26T13:12:49.830Z,5.03
2022-10-26T13:17:58.276Z,2.77
2022-10-26T13:23:04.590Z,2.70
2022-10-26T13:28:29.663Z,5.20
2022-10-26T13:33:39.082Z,2.10
2022-10-26T13:38:47.956Z,3.30
2022-10-26T13:43:53.777Z,4.10
2022-10-26T13:49:06.212Z,1.83
2022-10-26T13:54:22.793Z,3.80
2022-10-26T13:59:28.826Z,1.80
2022-10-26T14:04:32.311Z,2.50
2022-10-26T14:09:37.440Z,2.40
2022-10-26T14:14:41.793Z,3.50
2022-10-26T14:19:46.164Z,8.77
2022-10-26T14:30:23.008Z,6.43
2022-10-26T14:35:31.699Z,2.20
2022-10-26T14:40:37.434Z,3.87
2022-10-26T14:45:48.531Z,3.50
2022-10-26T14:51:00.148Z,1.27
2022-10-26T14:56:06.976Z,5.57
2022-10-26T15:01:18.403Z,5.10
2022-10-26T15:06:46.140Z,1.57
2022-10-26T15:11:51.073Z,7.90
2022-10-26T15:16:56.888Z,2.53
2022-10-26T15:22:00.634Z,4.63
2022-10-26T15:27:17.377Z,6.37
2022-10-26T15:32:32.198Z,1.30
2022-10-26T15:37:35.694Z,2.87
2022-10-26T15:42:42.115Z,4.87
2022-10-26T15:47:47.141Z,1.83
2022-10-26T15:52:51.884Z,6.90
2022-10-26T15:57:57.516Z,8.00
2022-10-26T16:03:01.527Z,7.30
2022-10-26T16:08:05.670Z,2.43
2022-10-26T16:13:13.618Z,4.40
2022-10-26T16:18:17.038Z,1.90
2022-10-26T16:23:20.620Z,9.07
2022-10-26T16:28:25.643Z,6.33
2022-10-26T16:33:29.191Z,12.00
2022-10-26T16:38:33.608Z,7.27
2022-10-26T16:43:40.305Z,8.43
2022-10-26T16:48:45.148Z,4.60
2022-10-26T16:53:49.911Z,3.60
2022-10-26T16:58:54.838Z,7.40
2022-10-26T17:03:58.398Z,5.53
2022-10-26T17:09:01.754Z,6.70
2022-10-26T17:14:06.685Z,13.20
2022-10-26T17:19:11.956Z,42.03
2022-10-26T17:24:15.480Z,51.13
2022-10-26T17:29:20.365Z,23.10
2022-10-26T17:34:23.696Z,27.00
2022-10-26T17:39:27.469Z,27.33
2022-10-26T17:44:33.814Z,25.70
2022-10-26T17:49:37.192Z,22.93
2022-10-26T17:54:40.575Z,9.70
2022-10-26T17:59:45.379Z,7.70
2022-10-26T18:04:48.909Z,13.80
2022-10-26T18:09:52.317Z,12.23
2022-10-26T18:14:57.290Z,7.13
2022-10-26T18:20:00.691Z,7.50
2022-10-26T18:25:04.243Z,4.83
2022-10-26T18:30:10.896Z,16.37
2022-10-26T18:35:14.384Z,4.23
2022-10-26T18:40:17.874Z,5.83
2022-10-26T18:45:22.616Z,4.07
2022-10-26T18:50:26.231Z,8.07
2022-10-26T18:55:30.152Z,4.13
2022-10-26T19:00:34.835Z,6.73
2022-10-26T19:05:41.316Z,6.83
2022-10-26T19:10:44.825Z,4.33
2022-10-26T19:15:49.530Z,3.03
2022-10-26T19:20:59.545Z,2.10
2022-10-26T19:26:04.044Z,6.37
2022-10-26T19:31:10.761Z,2.60
2022-10-26T19:36:15.169Z,7.80
2022-10-26T19:41:19.089Z,2.13
2022-10-26T19:46:26.288Z,5.00
2022-10-26T19:51:31.302Z,2.00
2022-10-26T19:56:36.231Z,2.30
2022-10-26T20:01:41.371Z,4.33
2022-10-26T20:06:44.883Z,2.03
2022-10-26T20:11:49.900Z,2.97
2022-10-26T20:16:57.369Z,1.60
2022-10-26T20:22:00.696Z,4.30
2022-10-26T20:27:04.266Z,4.00
2022-10-26T20:32:10.706Z,2.67
2022-10-26T20:37:14.907Z,7.50
2022-10-26T20:42:24.397Z,1.50
2022-10-26T20:47:29.946Z,1.90
2022-10-26T20:52:39.903Z,2.03
2022-10-26T20:57:52.665Z,2.20
2022-10-26T21:02:57.601Z,1.87
2022-10-26T21:08:00.929Z,2.50
2022-10-26T21:13:06.461Z,3.73
2022-10-26T21:18:11.900Z,5.80
2022-10-26T21:23:15.571Z,6.83
2022-10-26T21:28:18.967Z,4.00
2022-10-26T21:33:31.948Z,4.23
2022-10-26T21:38:35.969Z,4.23
2022-10-26T21:43:41.265Z,3.57
2022-10-26T21:48:47.137Z,3.40
2022-10-26T21:53:52.605Z,1.27
2022-10-26T21:58:56.506Z,1.40
2022-10-26T22:04:01.665Z,7.33
2022-10-26T22:09:05.263Z,5.93
2022-10-26T22:14:08.992Z,2.13
2022-10-26T22:19:13.955Z,5.40
2022-10-26T22:24:17.990Z,1.80
2022-10-26T22:29:21.566Z,5.87
2022-10-26T22:34:26.292Z,6.73
2022-10-26T22:39:29.879Z,2.83
2022-10-26T22:44:33.384Z,3.40
2022-10-26T22:49:38.271Z,1.13
2022-10-26T22:54:41.574Z,1.27
2022-10-26T22:59:44.981Z,1.13
2022-10-26T23:04:49.723Z,1.23
2022-10-26T23:09:53.239Z,2.60
2022-10-26T23:14:56.613Z,1.00
2022-10-26T23:20:01.334Z,1.13
2022-10-26T23:25:04.968Z,1.00
2022-10-26T23:30:09.574Z,5.50
2022-10-26T23:35:14.428Z,2.40
2022-10-26T23:40:17.864Z,0.80
2022-10-26T23:45:22.220Z,1.50
2022-10-26T23:50:26.930Z,1.23
2022-10-26T23:55:30.244Z,1.33
